sensor_id;sensor_type;location;lat;lon;timestamp;P1;durP1;ratioP1;P2;durP2;ratioP2
7239;SDS011;3661;53.288;10.458;2023-10-31T00:01:29;1503.93;;;999.90;;
7239;SDS011;3661;53.288;10.458;2023-10-31T00:04:03;1506.18;;;999.90;;
7239;SDS011;3661;53.288;10.458;2023-10-31T00:06:35;1517.15;;;999.90;;
7239;SDS011;3661;53.288;10.458;2023-10-31T00:09:08;1500.97;;;999.90;;
7239;SDS011;3661;53.288;10.458;2023-10-31T00:11:41;1511.10;;;999.90;;
7239;SDS011;3661;53.288;10.458;2023-10-31T00:14:13;1521.75;;;999.90;;
7239;SDS011;3661;53.288;10.458;2023-10-31T00:16:45;1534.57;;;999.90;;
7239;SDS011;3661;53.288;10.458;2023-10-31T00:19:20;1508.20;;;999.90;;
7239;SDS011;3661;53.288;10.458;2023-10-31T00:21:52;1511.70;;;999.90;;
7239;SDS011;3661;53.288;10.458;2023-10-31T00:24:24;1514.70;;;999.90;;
7239;SDS011;3661;53.288;10.458;2023-10-31T00:26:56;1493.95;;;999.90;;
7239;SDS011;3661;53.288;10.458;2023-10-31T00:29:28;1500.25;;;999.90;;
7239;SDS011;3661;53.288;10.458;2023-10-31T00:32:00;1520.10;;;999.90;;
7239;SDS011;3661;53.288;10.458;2023-10-31T00:34:34;1497.80;;;999.90;;
7239;SDS011;3661;53.288;10.458;2023-10-31T00:37:06;1511.82;;;999.90;;
7239;SDS011;3661;53.288;10.458;2023-10-31T00:39:38;1511.70;;;999.90;;
7239;SDS011;3661;53.288;10.458;2023-10-31T00:42:10;1518.43;;;999.90;;
7239;SDS011;3661;53.288;10.458;2023-10-31T00:44:42;1506.15;;;999.90;;
7239;SDS011;3661;53.288;10.458;2023-10-31T00:47:14;1496.38;;;999.90;;
7239;SDS011;3661;53.288;10.458;2023-10-31T00:49:49;1527.07;;;999.90;;
7239;SDS011;3661;53.288;10.458;2023-10-31T00:52:23;1505.75;;;999.90;;
7239;SDS011;3661;53.288;10.458;2023-10-31T00:54:55;1511.53;;;999.90;;
7239;SDS011;3661;53.288;10.458;2023-10-31T00:57:27;1514.40;;;999.90;;
7239;SDS011;3661;53.288;10.458;2023-10-31T01:00:00;1512.18;;;999.90;;
7239;SDS011;3661;53.288;10.458;2023-10-31T01:02:32;1477.95;;;999.90;;
7239;SDS011;3661;53.288;10.458;2023-10-31T01:05:05;1503.90;;;999.90;;
7239;SDS011;3661;53.288;10.458;2023-10-31T01:07:38;1501.47;;;999.90;;
7239;SDS011;3661;53.288;10.458;2023-10-31T01:10:10;1491.78;;;999.90;;
7239;SDS011;3661;53.288;10.458;2023-10-31T01:12:42;1516.57;;;999.90;;
7239;SDS011;3661;53.288;10.458;2023-10-31T01:15:14;1516.50;;;999.90;;
7239;SDS011;3661;53.288;10.458;2023-10-31T01:17:47;1510.40;;;999.90;;
7239;SDS011;3661;53.288;10.458;2023-10-31T01:20:20;1507.22;;;999.90;;
7239;SDS011;3661;53.288;10.458;2023-10-31T01:22:52;1507.93;;;999.90;;
7239;SDS011;3661;53.288;10.458;2023-10-31T01:25:24;1504.30;;;999.90;;
7239;SDS011;3661;53.288;10.458;2023-10-31T01:27:57;1512.68;;;999.90;;
7239;SDS011;3661;53.288;10.458;2023-10-31T01:30:29;1495.87;;;999.90;;
7239;SDS011;3661;53.288;10.458;2023-10-31T01:33:01;1515.47;;;999.90;;
7239;SDS011;3661;53.288;10.458;2023-10-31T01:35:34;1499.60;;;999.90;;
7239;SDS011;3661;53.288;10.458;2023-10-31T01:38:06;1506.15;;;999.90;;
7239;SDS011;3661;53.288;10.458;2023-10-31T01:40:38;1516.07;;;999.90;;
7239;SDS011;3661;53.288;10.458;2023-10-31T01:43:10;1519.10;;;999.90;;
7239;SDS011;3661;53.288;10.458;2023-10-31T01:45:43;1506.15;;;999.90;;
7239;SDS011;3661;53.288;10.458;2023-10-31T01:48:15;1506.53;;;999.90;;
7239;SDS011;3661;53.288;10.458;2023-10-31T01:50:51;1508.45;;;999.90;;
7239;SDS011;3661;53.288;10.458;2023-10-31T01:53:23;1512.10;;;999.90;;
7239;SDS011;3661;53.288;10.458;2023-10-31T01:55:58;1521.93;;;999.90;;
7239;SDS011;3661;53.288;10.458;2023-10-31T01:58:33;1516.87;;;999.90;;
7239;SDS011;3661;53.288;10.458;2023-10-31T02:01:06;1518.07;;;999.90;;
7239;SDS011;3661;53.288;10.458;2023-10-31T02:03:39;1515.50;;;999.90;;
7239;SDS011;3661;53.288;10.458;2023-10-31T02:06:13;1508.33;;;999.90;;
7239;SDS011;3661;53.288;10.458;2023-10-31T02:08:46;1513.50;;;999.90;;
7239;SDS011;3661;53.288;10.458;2023-10-31T02:11:21;1528.85;;;999.90;;
7239;SDS011;3661;53.288;10.458;2023-10-31T02:13:53;1510.20;;;999.90;;
7239;SDS011;3661;53.288;10.458;2023-10-31T02:16:27;1508.47;;;999.90;;
7239;SDS011;3661;53.288;10.458;2023-10-31T02:18:59;1492.35;;;999.90;;
7239;SDS011;3661;53.288;10.458;2023-10-31T02:21:33;1510.70;;;999.90;;
7239;SDS011;3661;53.288;10.458;2023-10-31T02:24:09;1493.07;;;999.90;;
7239;SDS011;3661;53.288;10.458;2023-10-31T02:26:42;1526.03;;;999.90;;
7239;SDS011;3661;53.288;10.458;2023-10-31T02:29:14;1489.03;;;999.90;;
7239;SDS011;3661;53.288;10.458;2023-10-31T02:31:46;1511.60;;;999.90;;
7239;SDS011;3661;53.288;10.458;2023-10-31T02:34:19;1518.22;;;999.90;;
7239;SDS011;3661;53.288;10.458;2023-10-31T02:36:51;1495.93;;;999.90;;
7239;SDS011;3661;53.288;10.458;2023-10-31T02:39:25;1500.37;;;999.90;;
7239;SDS011;3661;53.288;10.458;2023-10-31T02:42:00;1525.70;;;999.90;;
7239;SDS011;3661;53.288;10.458;2023-10-31T02:44:32;1514.00;;;999.90;;
7239;SDS011;3661;53.288;10.458;2023-10-31T02:47:05;1521.43;;;999.90;;
7239;SDS011;3661;53.288;10.458;2023-10-31T02:49:37;1515.55;;;999.90;;
7239;SDS011;3661;53.288;10.458;2023-10-31T02:52:09;1511.93;;;999.90;;
7239;SDS011;3661;53.288;10.458;2023-10-31T02:54:43;1517.90;;;999.90;;
7239;SDS011;3661;53.288;10.458;2023-10-31T02:57:16;1522.15;;;999.90;;
7239;SDS011;3661;53.288;10.458;2023-10-31T02:59:48;1509.95;;;999.90;;
7239;SDS011;3661;53.288;10.458;2023-10-31T03:02:20;1527.10;;;999.90;;
7239;SDS011;3661;53.288;10.458;2023-10-31T03:04:52;1492.70;;;999.90;;
7239;SDS011;3661;53.288;10.458;2023-10-31T03:07:24;1519.30;;;999.90;;
7239;SDS011;3661;53.288;10.458;2023-10-31T03:09:58;1521.95;;;999.90;;
7239;SDS011;3661;53.288;10.458;2023-10-31T03:12:30;1525.82;;;999.90;;
7239;SDS011;3661;53.288;10.458;2023-10-31T03:15:02;1496.53;;;999.90;;
7239;SDS011;3661;53.288;10.458;2023-10-31T03:17:35;1511.90;;;999.90;;
7239;SDS011;3661;53.288;10.458;2023-10-31T03:20:07;1518.87;;;999.90;;
7239;SDS011;3661;53.288;10.458;2023-10-31T03:22:40;1510.45;;;999.90;;
7239;SDS011;3661;53.288;10.458;2023-10-31T03:25:15;1515.80;;;999.90;;
7239;SDS011;3661;53.288;10.458;2023-10-31T03:27:48;1529.20;;;999.90;;
7239;SDS011;3661;53.288;10.458;2023-10-31T03:30:20;1506.40;;;999.90;;
7239;SDS011;3661;53.288;10.458;2023-10-31T03:32:55;1518.97;;;999.90;;
7239;SDS011;3661;53.288;10.458;2023-10-31T03:35:28;1528.88;;;999.90;;
7239;SDS011;3661;53.288;10.458;2023-10-31T03:38:00;1522.95;;;999.90;;
7239;SDS011;3661;53.288;10.458;2023-10-31T03:40:34;1527.78;;;999.90;;
7239;SDS011;3661;53.288;10.458;2023-10-31T03:43:06;1537.43;;;999.90;;
7239;SDS011;3661;53.288;10.458;2023-10-31T03:45:38;1516.18;;;999.90;;
7239;SDS011;3661;53.288;10.458;2023-10-31T03:48:12;1529.68;;;999.90;;
7239;SDS011;3661;53.288;10.458;2023-10-31T03:50:44;1534.22;;;999.90;;
7239;SDS011;3661;53.288;10.458;2023-10-31T03:53:16;1529.53;;;999.90;;
7239;SDS011;3661;53.288;10.458;2023-10-31T03:55:50;1542.07;;;999.90;;
7239;SDS011;3661;53.288;10.458;2023-10-31T03:58:22;1532.60;;;999.90;;
7239;SDS011;3661;53.288;10.458;2023-10-31T04:00:54;1519.85;;;999.90;;
7239;SDS011;3661;53.288;10.458;2023-10-31T04:03:26;1516.93;;;999.90;;
7239;SDS011;3661;53.288;10.458;2023-10-31T04:05:58;1530.00;;;999.90;;
7239;SDS011;3661;53.288;10.458;2023-10-31T04:08:30;1541.82;;;999.90;;
7239;SDS011;3661;53.288;10.458;2023-10-31T04:11:04;1520.18;;;999.90;;
7239;SDS011;3661;53.288;10.458;2023-10-31T04:13:36;1512.47;;;999.90;;
7239;SDS011;3661;53.288;10.458;2023-10-31T04:16:08;1510.65;;;999.90;;
7239;SDS011;3661;53.288;10.458;2023-10-31T04:18:40;1525.95;;;999.90;;
7239;SDS011;3661;53.288;10.458;2023-10-31T04:21:12;1530.57;;;999.90;;
7239;SDS011;3661;53.288;10.458;2023-10-31T04:23:44;1528.10;;;999.90;;
7239;SDS011;3661;53.288;10.458;2023-10-31T04:26:19;1542.07;;;999.90;;
7239;SDS011;3661;53.288;10.458;2023-10-31T04:28:51;1533.10;;;999.90;;
7239;SDS011;3661;53.288;10.458;2023-10-31T04:31:24;1528.05;;;999.90;;
7239;SDS011;3661;53.288;10.458;2023-10-31T04:33:57;1511.07;;;999.90;;
7239;SDS011;3661;53.288;10.458;2023-10-31T04:36:29;1517.15;;;999.90;;
7239;SDS011;3661;53.288;10.458;2023-10-31T04:39:01;1525.90;;;999.90;;
7239;SDS011;3661;53.288;10.458;2023-10-31T04:41:36;1515.95;;;999.90;;
7239;SDS011;3661;53.288;10.458;2023-10-31T04:44:09;1513.75;;;999.90;;
7239;SDS011;3661;53.288;10.458;2023-10-31T04:46:41;1522.27;;;999.90;;
7239;SDS011;3661;53.288;10.458;2023-10-31T04:49:13;1514.75;;;999.90;;
7239;SDS011;3661;53.288;10.458;2023-10-31T04:51:45;1504.93;;;999.90;;
7239;SDS011;3661;53.288;10.458;2023-10-31T04:54:17;1517.32;;;999.90;;
7239;SDS011;3661;53.288;10.458;2023-10-31T04:56:51;1522.68;;;999.90;;
7239;SDS011;3661;53.288;10.458;2023-10-31T04:59:23;1515.32;;;999.90;;
7239;SDS011;3661;53.288;10.458;2023-10-31T05:01:55;1513.50;;;999.90;;
7239;SDS011;3661;53.288;10.458;2023-10-31T05:04:27;1517.60;;;999.90;;
7239;SDS011;3661;53.288;10.458;2023-10-31T05:06:59;1515.57;;;999.90;;
7239;SDS011;3661;53.288;10.458;2023-10-31T05:09:31;1503.15;;;999.90;;
7239;SDS011;3661;53.288;10.458;2023-10-31T05:12:06;1519.40;;;999.90;;
7239;SDS011;3661;53.288;10.458;2023-10-31T05:14:39;1521.55;;;999.90;;
7239;SDS011;3661;53.288;10.458;2023-10-31T05:17:11;1537.00;;;999.90;;
7239;SDS011;3661;53.288;10.458;2023-10-31T05:19:45;1520.93;;;999.90;;
7239;SDS011;3661;53.288;10.458;2023-10-31T05:22:17;1517.68;;;999.90;;
7239;SDS011;3661;53.288;10.458;2023-10-31T05:24:49;1518.60;;;999.90;;
7239;SDS011;3661;53.288;10.458;2023-10-31T05:27:23;1505.53;;;999.90;;
7239;SDS011;3661;53.288;10.458;2023-10-31T05:29:55;1536.22;;;999.90;;
7239;SDS011;3661;53.288;10.458;2023-10-31T05:32:30;1538.05;;;999.90;;
7239;SDS011;3661;53.288;10.458;2023-10-31T05:35:03;1527.82;;;999.90;;
7239;SDS011;3661;53.288;10.458;2023-10-31T05:37:36;1532.97;;;999.90;;
7239;SDS011;3661;53.288;10.458;2023-10-31T05:40:08;1524.22;;;999.90;;
7239;SDS011;3661;53.288;10.458;2023-10-31T05:42:43;1524.22;;;999.90;;
7239;SDS011;3661;53.288;10.458;2023-10-31T05:45:15;1532.25;;;999.90;;
7239;SDS011;3661;53.288;10.458;2023-10-31T05:47:48;1528.85;;;999.90;;
7239;SDS011;3661;53.288;10.458;2023-10-31T05:50:21;1521.53;;;999.90;;
7239;SDS011;3661;53.288;10.458;2023-10-31T05:52:53;1529.68;;;999.90;;
7239;SDS011;3661;53.288;10.458;2023-10-31T05:55:26;1545.50;;;999.90;;
7239;SDS011;3661;53.288;10.458;2023-10-31T05:58:00;1540.20;;;999.90;;
7239;SDS011;3661;53.288;10.458;2023-10-31T06:00:32;1541.35;;;999.90;;
7239;SDS011;3661;53.288;10.458;2023-10-31T06:03:08;1554.97;;;999.90;;
7239;SDS011;3661;53.288;10.458;2023-10-31T06:05:40;1516.60;;;999.90;;
7239;SDS011;3661;53.288;10.458;2023-10-31T06:08:13;1529.35;;;999.90;;
7239;SDS011;3661;53.288;10.458;2023-10-31T06:10:47;1545.22;;;999.90;;
7239;SDS011;3661;53.288;10.458;2023-10-31T06:13:20;1528.57;;;999.90;;
7239;SDS011;3661;53.288;10.458;2023-10-31T06:15:53;1524.22;;;999.90;;
7239;SDS011;3661;53.288;10.458;2023-10-31T06:18:25;1529.40;;;999.90;;
7239;SDS011;3661;53.288;10.458;2023-10-31T06:20:58;1534.25;;;999.90;;
7239;SDS011;3661;53.288;10.458;2023-10-31T06:23:30;1537.50;;;999.90;;
7239;SDS011;3661;53.288;10.458;2023-10-31T06:26:03;1542.93;;;999.90;;
7239;SDS011;3661;53.288;10.458;2023-10-31T06:28:36;1550.72;;;999.90;;
7239;SDS011;3661;53.288;10.458;2023-10-31T06:31:10;1541.20;;;999.90;;
7239;SDS011;3661;53.288;10.458;2023-10-31T06:33:42;1535.53;;;999.90;;
7239;SDS011;3661;53.288;10.458;2023-10-31T06:36:17;1531.25;;;999.90;;
7239;SDS011;3661;53.288;10.458;2023-10-31T06:38:49;1511.77;;;999.90;;
7239;SDS011;3661;53.288;10.458;2023-10-31T06:41:21;1511.90;;;999.90;;
7239;SDS011;3661;53.288;10.458;2023-10-31T06:43:56;1534.95;;;999.90;;
7239;SDS011;3661;53.288;10.458;2023-10-31T06:46:28;1526.75;;;999.90;;
7239;SDS011;3661;53.288;10.458;2023-10-31T06:49:00;1529.20;;;999.90;;
7239;SDS011;3661;53.288;10.458;2023-10-31T06:51:34;1521.32;;;999.90;;
7239;SDS011;3661;53.288;10.458;2023-10-31T06:54:06;1527.97;;;999.90;;
7239;SDS011;3661;53.288;10.458;2023-10-31T06:56:38;1529.60;;;999.90;;
7239;SDS011;3661;53.288;10.458;2023-10-31T06:59:12;1521.07;;;999.90;;
7239;SDS011;3661;53.288;10.458;2023-10-31T07:01:44;1507.07;;;999.90;;
7239;SDS011;3661;53.288;10.458;2023-10-31T07:04:16;1518.78;;;999.90;;
7239;SDS011;3661;53.288;10.458;2023-10-31T07:06:48;1522.15;;;999.90;;
7239;SDS011;3661;53.288;10.458;2023-10-31T07:09:27;1518.83;;;999.90;;
7239;SDS011;3661;53.288;10.458;2023-10-31T07:11:59;1503.88;;;999.90;;
7239;SDS011;3661;53.288;10.458;2023-10-31T07:14:32;1514.65;;;999.90;;
7239;SDS011;3661;53.288;10.458;2023-10-31T07:17:05;1512.75;;;999.90;;
7239;SDS011;3661;53.288;10.458;2023-10-31T07:19:38;1490.00;;;999.90;;
7239;SDS011;3661;53.288;10.458;2023-10-31T07:22:10;1509.32;;;999.90;;
7239;SDS011;3661;53.288;10.458;2023-10-31T07:24:42;1505.57;;;999.90;;
7239;SDS011;3661;53.288;10.458;2023-10-31T07:27:14;1490.78;;;999.90;;
7239;SDS011;3661;53.288;10.458;2023-10-31T07:29:48;1504.50;;;999.90;;
7239;SDS011;3661;53.288;10.458;2023-10-31T07:32:20;1511.40;;;999.90;;
7239;SDS011;3661;53.288;10.458;2023-10-31T07:34:52;1514.90;;;999.90;;
7239;SDS011;3661;53.288;10.458;2023-10-31T07:37:25;1501.82;;;999.90;;
7239;SDS011;3661;53.288;10.458;2023-10-31T07:39:57;1499.60;;;999.90;;
7239;SDS011;3661;53.288;10.458;2023-10-31T07:42:29;1508.50;;;999.90;;
7239;SDS011;3661;53.288;10.458;2023-10-31T07:45:03;1489.32;;;999.90;;
7239;SDS011;3661;53.288;10.458;2023-10-31T07:47:36;1513.32;;;999.90;;
7239;SDS011;3661;53.288;10.458;2023-10-31T07:50:08;1508.47;;;999.90;;
7239;SDS011;3661;53.288;10.458;2023-10-31T07:52:41;1500.15;;;999.90;;
7239;SDS011;3661;53.288;10.458;2023-10-31T07:55:14;1502.90;;;999.90;;
7239;SDS011;3661;53.288;10.458;2023-10-31T07:57:46;1488.38;;;999.90;;
7239;SDS011;3661;53.288;10.458;2023-10-31T08:00:20;1474.00;;;999.90;;
7239;SDS011;3661;53.288;10.458;2023-10-31T08:02:52;1500.78;;;999.90;;
7239;SDS011;3661;53.288;10.458;2023-10-31T08:05:25;1507.55;;;999.90;;
7239;SDS011;3661;53.288;10.458;2023-10-31T08:07:57;1491.80;;;999.90;;
7239;SDS011;3661;53.288;10.458;2023-10-31T08:10:29;1501.15;;;999.90;;
7239;SDS011;3661;53.288;10.458;2023-10-31T08:13:02;1496.25;;;999.90;;
7239;SDS011;3661;53.288;10.458;2023-10-31T08:15:35;1485.65;;;999.90;;
7239;SDS011;3661;53.288;10.458;2023-10-31T08:18:08;1488.50;;;999.90;;
7239;SDS011;3661;53.288;10.458;2023-10-31T08:20:40;1477.85;;;999.90;;
7239;SDS011;3661;53.288;10.458;2023-10-31T08:23:13;1497.68;;;999.90;;
7239;SDS011;3661;53.288;10.458;2023-10-31T08:25:45;1480.80;;;999.90;;
7239;SDS011;3661;53.288;10.458;2023-10-31T08:28:17;1489.22;;;999.90;;
7239;SDS011;3661;53.288;10.458;2023-10-31T08:30:51;1480.80;;;999.90;;
7239;SDS011;3661;53.288;10.458;2023-10-31T08:33:23;1487.90;;;999.90;;
7239;SDS011;3661;53.288;10.458;2023-10-31T08:35:55;1489.15;;;999.90;;
7239;SDS011;3661;53.288;10.458;2023-10-31T08:38:27;1463.55;;;999.90;;
7239;SDS011;3661;53.288;10.458;2023-10-31T08:40:59;1471.75;;;999.90;;
7239;SDS011;3661;53.288;10.458;2023-10-31T08:43:32;1478.97;;;999.90;;
7239;SDS011;3661;53.288;10.458;2023-10-31T08:46:05;1494.93;;;999.90;;
7239;SDS011;3661;53.288;10.458;2023-10-31T08:48:37;1471.38;;;999.90;;
7239;SDS011;3661;53.288;10.458;2023-10-31T08:51:10;1473.07;;;999.90;;
7239;SDS011;3661;53.288;10.458;2023-10-31T08:53:42;1474.63;;;999.90;;
7239;SDS011;3661;53.288;10.458;2023-10-31T08:56:14;1464.40;;;999.90;;
7239;SDS011;3661;53.288;10.458;2023-10-31T08:58:46;1466.70;;;999.90;;
7239;SDS011;3661;53.288;10.458;2023-10-31T09:01:19;1479.73;;;999.90;;
7239;SDS011;3661;53.288;10.458;2023-10-31T09:03:52;1468.65;;;999.90;;
7239;SDS011;3661;53.288;10.458;2023-10-31T09:06:24;1457.63;;;999.90;;
7239;SDS011;3661;53.288;10.458;2023-10-31T09:08:56;1452.97;;;999.90;;
7239;SDS011;3661;53.288;10.458;2023-10-31T09:11:28;1458.65;;;999.90;;
7239;SDS011;3661;53.288;10.458;2023-10-31T09:14:09;1461.90;;;999.90;;
7239;SDS011;3661;53.288;10.458;2023-10-31T09:19:30;1472.38;;;999.90;;
7239;SDS011;3661;53.288;10.458;2023-10-31T09:22:02;1455.43;;;999.90;;
7239;SDS011;3661;53.288;10.458;2023-10-31T09:24:34;1465.28;;;999.90;;
7239;SDS011;3661;53.288;10.458;2023-10-31T09:27:06;1477.72;;;999.90;;
7239;SDS011;3661;53.288;10.458;2023-10-31T09:29:38;1453.87;;;999.90;;
7239;SDS011;3661;53.288;10.458;2023-10-31T09:32:37;1456.70;;;999.90;;
7239;SDS011;3661;53.288;10.458;2023-10-31T09:35:11;1474.10;;;999.90;;
7239;SDS011;3661;53.288;10.458;2023-10-31T09:37:43;1473.95;;;999.90;;
7239;SDS011;3661;53.288;10.458;2023-10-31T09:40:18;1475.95;;;999.90;;
7239;SDS011;3661;53.288;10.458;2023-10-31T09:42:51;1458.93;;;999.90;;
7239;SDS011;3661;53.288;10.458;2023-10-31T09:45:25;1460.63;;;999.90;;
7239;SDS011;3661;53.288;10.458;2023-10-31T09:48:00;1461.60;;;999.90;;
7239;SDS011;3661;53.288;10.458;2023-10-31T09:50:36;1460.53;;;999.90;;
7239;SDS011;3661;53.288;10.458;2023-10-31T09:53:11;1466.05;;;999.90;;
7239;SDS011;3661;53.288;10.458;2023-10-31T09:55:46;1467.55;;;999.90;;
7239;SDS011;3661;53.288;10.458;2023-10-31T09:58:25;1470.07;;;999.90;;
7239;SDS011;3661;53.288;10.458;2023-10-31T10:00:57;1473.68;;;999.90;;
7239;SDS011;3661;53.288;10.458;2023-10-31T10:03:30;1481.80;;;999.90;;
7239;SDS011;3661;53.288;10.458;2023-10-31T10:06:03;1457.35;;;999.90;;
7239;SDS011;3661;53.288;10.458;2023-10-31T10:08:36;1475.25;;;999.90;;
7239;SDS011;3661;53.288;10.458;2023-10-31T10:11:09;1474.38;;;999.90;;
7239;SDS011;3661;53.288;10.458;2023-10-31T10:13:42;1465.95;;;999.90;;
7239;SDS011;3661;53.288;10.458;2023-10-31T10:16:27;1483.10;;;999.90;;
7239;SDS011;3661;53.288;10.458;2023-10-31T10:19:14;1476.13;;;999.90;;
7239;SDS011;3661;53.288;10.458;2023-10-31T10:21:50;1458.07;;;999.90;;
7239;SDS011;3661;53.288;10.458;2023-10-31T10:24:23;1472.35;;;999.90;;
7239;SDS011;3661;53.288;10.458;2023-10-31T10:26:56;1468.90;;;999.90;;
7239;SDS011;3661;53.288;10.458;2023-10-31T10:29:28;1457.10;;;999.90;;
7239;SDS011;3661;53.288;10.458;2023-10-31T10:32:00;1465.25;;;999.90;;
7239;SDS011;3661;53.288;10.458;2023-10-31T10:34:33;1473.32;;;999.90;;
7239;SDS011;3661;53.288;10.458;2023-10-31T10:37:06;1475.40;;;999.90;;
7239;SDS011;3661;53.288;10.458;2023-10-31T10:39:38;1458.67;;;999.90;;
7239;SDS011;3661;53.288;10.458;2023-10-31T10:42:12;1455.55;;;999.90;;
7239;SDS011;3661;53.288;10.458;2023-10-31T10:44:48;1475.38;;;999.90;;
7239;SDS011;3661;53.288;10.458;2023-10-31T10:47:24;1484.50;;;999.90;;
7239;SDS011;3661;53.288;10.458;2023-10-31T10:49:58;1478.78;;;999.90;;
7239;SDS011;3661;53.288;10.458;2023-10-31T10:52:34;1481.40;;;999.90;;
7239;SDS011;3661;53.288;10.458;2023-10-31T10:55:17;1472.28;;;999.90;;
7239;SDS011;3661;53.288;10.458;2023-10-31T10:57:54;1476.28;;;999.90;;
7239;SDS011;3661;53.288;10.458;2023-10-31T11:00:31;1457.70;;;999.90;;
7239;SDS011;3661;53.288;10.458;2023-10-31T11:03:04;1483.20;;;999.90;;
7239;SDS011;3661;53.288;10.458;2023-10-31T11:05:39;1494.63;;;999.90;;
7239;SDS011;3661;53.288;10.458;2023-10-31T11:08:12;1479.93;;;999.90;;
7239;SDS011;3661;53.288;10.458;2023-10-31T11:10:44;1493.03;;;999.90;;
7239;SDS011;3661;53.288;10.458;2023-10-31T11:13:22;1487.78;;;999.90;;
7239;SDS011;3661;53.288;10.458;2023-10-31T11:15:57;1490.45;;;999.90;;
7239;SDS011;3661;53.288;10.458;2023-10-31T11:18:36;1505.85;;;999.90;;
7239;SDS011;3661;53.288;10.458;2023-10-31T11:21:09;1488.93;;;999.90;;
7239;SDS011;3661;53.288;10.458;2023-10-31T11:23:41;1502.80;;;999.90;;
7239;SDS011;3661;53.288;10.458;2023-10-31T11:26:14;1485.43;;;999.90;;
7239;SDS011;3661;53.288;10.458;2023-10-31T11:28:48;1503.95;;;999.90;;
7239;SDS011;3661;53.288;10.458;2023-10-31T11:31:22;1515.72;;;999.90;;
7239;SDS011;3661;53.288;10.458;2023-10-31T11:33:54;1497.88;;;999.90;;
7239;SDS011;3661;53.288;10.458;2023-10-31T11:36:31;1503.70;;;999.90;;
7239;SDS011;3661;53.288;10.458;2023-10-31T11:39:11;1503.63;;;999.90;;
7239;SDS011;3661;53.288;10.458;2023-10-31T11:41:48;1494.40;;;999.90;;
7239;SDS011;3661;53.288;10.458;2023-10-31T11:44:21;1492.32;;;999.90;;
7239;SDS011;3661;53.288;10.458;2023-10-31T11:46:58;1491.43;;;999.90;;
7239;SDS011;3661;53.288;10.458;2023-10-31T11:49:45;1502.30;;;999.90;;
7239;SDS011;3661;53.288;10.458;2023-10-31T11:52:25;1484.75;;;999.90;;
7239;SDS011;3661;53.288;10.458;2023-10-31T11:54:57;1509.30;;;999.90;;
7239;SDS011;3661;53.288;10.458;2023-10-31T11:57:29;1504.07;;;999.90;;
7239;SDS011;3661;53.288;10.458;2023-10-31T12:00:02;1481.03;;;999.90;;
7239;SDS011;3661;53.288;10.458;2023-10-31T12:02:35;1517.03;;;999.90;;
7239;SDS011;3661;53.288;10.458;2023-10-31T12:05:07;1473.75;;;999.90;;
7239;SDS011;3661;53.288;10.458;2023-10-31T12:07:44;1492.53;;;999.90;;
7239;SDS011;3661;53.288;10.458;2023-10-31T12:10:21;1507.40;;;999.90;;
7239;SDS011;3661;53.288;10.458;2023-10-31T12:12:54;1504.10;;;999.90;;
7239;SDS011;3661;53.288;10.458;2023-10-31T12:15:27;1499.95;;;999.90;;
7239;SDS011;3661;53.288;10.458;2023-10-31T12:17:59;1492.85;;;999.90;;
7239;SDS011;3661;53.288;10.458;2023-10-31T12:20:31;1494.70;;;999.90;;
7239;SDS011;3661;53.288;10.458;2023-10-31T12:23:04;1511.82;;;999.90;;
7239;SDS011;3661;53.288;10.458;2023-10-31T12:25:45;1508.07;;;999.90;;
7239;SDS011;3661;53.288;10.458;2023-10-31T12:28:17;1483.07;;;999.90;;
7239;SDS011;3661;53.288;10.458;2023-10-31T12:30:50;1509.72;;;999.90;;
7239;SDS011;3661;53.288;10.458;2023-10-31T12:33:25;1504.28;;;999.90;;
7239;SDS011;3661;53.288;10.458;2023-10-31T12:35:58;1501.38;;;999.90;;
7239;SDS011;3661;53.288;10.458;2023-10-31T12:38:32;1504.22;;;999.90;;
7239;SDS011;3661;53.288;10.458;2023-10-31T12:41:05;1513.23;;;999.90;;
7239;SDS011;3661;53.288;10.458;2023-10-31T12:43:37;1488.78;;;999.90;;
7239;SDS011;3661;53.288;10.458;2023-10-31T12:46:27;1499.50;;;999.90;;
7239;SDS011;3661;53.288;10.458;2023-10-31T12:49:00;1499.40;;;999.90;;
7239;SDS011;3661;53.288;10.458;2023-10-31T12:51:32;1494.75;;;999.90;;
7239;SDS011;3661;53.288;10.458;2023-10-31T12:54:06;1494.72;;;999.90;;
7239;SDS011;3661;53.288;10.458;2023-10-31T12:56:39;1498.47;;;999.90;;
7239;SDS011;3661;53.288;10.458;2023-10-31T12:59:12;1497.90;;;999.90;;
7239;SDS011;3661;53.288;10.458;2023-10-31T13:01:44;1507.75;;;999.90;;
7239;SDS011;3661;53.288;10.458;2023-10-31T13:04:23;1506.03;;;999.90;;
7239;SDS011;3661;53.288;10.458;2023-10-31T13:06:57;1502.55;;;999.90;;
7239;SDS011;3661;53.288;10.458;2023-10-31T13:09:31;1480.53;;;999.90;;
7239;SDS011;3661;53.288;10.458;2023-10-31T13:12:05;1482.38;;;999.90;;
7239;SDS011;3661;53.288;10.458;2023-10-31T13:14:38;1499.50;;;999.90;;
7239;SDS011;3661;53.288;10.458;2023-10-31T13:17:10;1505.10;;;999.90;;
7239;SDS011;3661;53.288;10.458;2023-10-31T13:19:42;1508.45;;;999.90;;
7239;SDS011;3661;53.288;10.458;2023-10-31T13:22:14;1487.45;;;999.90;;
7239;SDS011;3661;53.288;10.458;2023-10-31T13:24:48;1507.53;;;999.90;;
7239;SDS011;3661;53.288;10.458;2023-10-31T13:27:20;1486.25;;;999.90;;
7239;SDS011;3661;53.288;10.458;2023-10-31T13:29:53;1499.50;;;999.90;;
7239;SDS011;3661;53.288;10.458;2023-10-31T13:32:28;1488.60;;;999.90;;
7239;SDS011;3661;53.288;10.458;2023-10-31T13:35:00;1486.57;;;999.90;;
7239;SDS011;3661;53.288;10.458;2023-10-31T13:37:32;1498.38;;;999.90;;
7239;SDS011;3661;53.288;10.458;2023-10-31T13:40:07;1491.80;;;999.90;;
7239;SDS011;3661;53.288;10.458;2023-10-31T13:42:39;1471.43;;;999.90;;
7239;SDS011;3661;53.288;10.458;2023-10-31T13:45:11;1509.50;;;999.90;;
7239;SDS011;3661;53.288;10.458;2023-10-31T13:47:44;1505.40;;;999.90;;
7239;SDS011;3661;53.288;10.458;2023-10-31T13:50:16;1489.25;;;999.90;;
7239;SDS011;3661;53.288;10.458;2023-10-31T13:52:48;1491.53;;;999.90;;
7239;SDS011;3661;53.288;10.458;2023-10-31T13:55:22;1490.78;;;999.90;;
7239;SDS011;3661;53.288;10.458;2023-10-31T13:57:55;1486.03;;;999.90;;
7239;SDS011;3661;53.288;10.458;2023-10-31T14:00:27;1492.22;;;999.90;;
7239;SDS011;3661;53.288;10.458;2023-10-31T14:03:00;1499.57;;;999.90;;
7239;SDS011;3661;53.288;10.458;2023-10-31T14:05:32;1465.15;;;999.90;;
7239;SDS011;3661;53.288;10.458;2023-10-31T14:08:04;1479.63;;;999.90;;
7239;SDS011;3661;53.288;10.458;2023-10-31T14:10:38;1480.00;;;999.90;;
7239;SDS011;3661;53.288;10.458;2023-10-31T14:13:10;1485.45;;;999.90;;
7239;SDS011;3661;53.288;10.458;2023-10-31T14:15:42;1475.47;;;999.90;;
7239;SDS011;3661;53.288;10.458;2023-10-31T14:18:14;1483.35;;;999.90;;
7239;SDS011;3661;53.288;10.458;2023-10-31T14:20:46;1494.60;;;999.90;;
7239;SDS011;3661;53.288;10.458;2023-10-31T14:23:19;1493.13;;;999.90;;
7239;SDS011;3661;53.288;10.458;2023-10-31T14:25:52;1492.03;;;999.90;;
7239;SDS011;3661;53.288;10.458;2023-10-31T14:28:24;1461.20;;;999.90;;
7239;SDS011;3661;53.288;10.458;2023-10-31T14:30:56;1476.03;;;999.90;;
7239;SDS011;3661;53.288;10.458;2023-10-31T14:33:28;1477.60;;;999.90;;